| time (UTC) | temp F | wind direction | speed MPH | gust MPH | rain 1hr in | rain 24hr in | rain mn in | humidity % | barometer mb |
| 20260502163224 | 63 | 202 | 2.0 | 6.0 | 0.00 | 0.00 | 0.00 | 26 | 1013.1 |
| 20260502162724 | 63 | 214 | 2.0 | 5.0 | 0.00 | 0.00 | 0.00 | 25 | 1013.1 |
| 20260502162224 | 63 | 197 | 2.0 | 7.0 | 0.00 | 0.00 | 0.00 | 24 | 1013.2 |
| 20260502161724 | 63 | 193 | 2.0 | 5.0 | 0.00 | 0.00 | 0.00 | 26 | 1013.1 |
| 20260502161224 | 62 | 217 | 2.0 | 5.0 | 0.00 | 0.00 | 0.00 | 26 | 1013.1 |
| 20260502160724 | 62 | 220 | 3.0 | 6.0 | 0.00 | 0.00 | 0.00 | 26 | 1013.1 |
| 20260502160224 | 62 | 210 | 3.0 | 5.0 | 0.00 | 0.00 | 0.00 | 26 | 1013.2 |
| 20260502152224 | 62 | 200 | 2.0 | 5.0 | 0.00 | 0.00 | 0.00 | 27 | 1013.3 |
| 20260502151724 | 62 | 183 | 1.0 | 4.0 | 0.00 | 0.00 | 0.00 | 27 | 1013.3 |
| 20260502151224 | 61 | 178 | 1.0 | 4.0 | 0.00 | 0.00 | 0.00 | 28 | 1013.3 |
| 20260502150724 | 61 | 165 | 1.0 | 5.0 | 0.00 | 0.00 | 0.00 | 28 | 1013.3 |
| 20260502150224 | 60 | 46 | 0.0 | 4.0 | 0.00 | 0.00 | 0.00 | 29 | 1013.4 |
| 20260502130724 | 46 | 44 | 0.0 | 0.0 | 0.00 | 0.00 | 0.00 | 50 | 1013.4 |
| 20260502130224 | 45 | 44 | 0.0 | 0.0 | 0.00 | 0.00 | 0.00 | 49 | 1013.4 |
| 20260502123724 | 45 | 44 | 0.0 | 2.0 | 0.00 | 0.00 | 0.00 | 49 | 1013.4 |
| 20260502123224 | 45 | 44 | 1.0 | 2.0 | 0.00 | 0.00 | 0.00 | 48 | 1013.3 |
| 20260502122724 | 44 | 44 | 0.0 | 3.0 | 0.00 | 0.00 | 0.00 | 48 | 1013.2 |
| 20260502122224 | 45 | 44 | 0.0 | 0.0 | 0.00 | 0.00 | 0.00 | 49 | 1013.3 |
| 20260502121724 | 45 | 44 | 0.0 | 0.0 | 0.00 | 0.00 | 0.00 | 48 | 1013.2 |
| 20260502121224 | 45 | 44 | 0.0 | 0.0 | 0.00 | 0.00 | 0.00 | 48 | 1013.2 |
| 20260502120724 | 45 | 44 | 0.0 | 0.0 | 0.00 | 0.00 | 0.00 | 48 | 1013.2 |
| 20260502120224 | 45 | 44 | 0.0 | 0.0 | 0.00 | 0.00 | 0.00 | 48 | 1013.2 |
| 20260502115724 | 45 | 44 | 0.0 | 0.0 | 0.00 | 0.00 | 0.00 | 48 | 1013.1 |
| 20260502115224 | 45 | 44 | 0.0 | 0.0 | 0.00 | 0.00 | 0.00 | 48 | 1013.2 |
| 20260502114724 | 45 | 44 | 0.0 | 0.0 | 0.00 | 0.00 | 0.00 | 48 | 1013.2 |
| 20260502114224 | 45 | 44 | 0.0 | 0.0 | 0.00 | 0.00 | 0.00 | 48 | 1013.2 |
| 20260502113724 | 45 | 44 | 0.0 | 0.0 | 0.00 | 0.00 | 0.00 | 48 | 1013.2 |
| 20260502113224 | 45 | 44 | 0.0 | 0.0 | 0.00 | 0.00 | 0.00 | 48 | 1013.1 |
| 20260502112724 | 45 | 44 | 0.0 | 0.0 | 0.00 | 0.00 | 0.00 | 48 | 1013.2 |
| 20260502112225 | 45 | 44 | 0.0 | 0.0 | 0.00 | 0.00 | 0.00 | 48 | 1013.3 |
| 20260502111724 | 45 | 44 | 0.0 | 0.0 | 0.00 | 0.00 | 0.00 | 48 | 1013.3 |
| 20260502111224 | 45 | 44 | 0.0 | 0.0 | 0.00 | 0.00 | 0.00 | 47 | 1013.3 |
| 20260502110724 | 45 | 44 | 0.0 | 0.0 | 0.00 | 0.00 | 0.00 | 49 | 1013.3 |
| 20260502110224 | 46 | 44 | 0.0 | 0.0 | 0.00 | 0.00 | 0.00 | 48 | 1013.3 |
| 20260502105724 | 46 | 44 | 0.0 | 0.0 | 0.00 | 0.00 | 0.00 | 47 | 1013.3 |
| 20260502105224 | 46 | 44 | 0.0 | 0.0 | 0.00 | 0.00 | 0.00 | 47 | 1013.3 |
| 20260502104725 | 46 | 44 | 0.0 | 0.0 | 0.00 | 0.00 | 0.00 | 47 | 1013.3 |
| 20260502104225 | 46 | 44 | 0.0 | 0.0 | 0.00 | 0.00 | 0.00 | 47 | 1013.3 |
| 20260502103725 | 46 | 44 | 0.0 | 0.0 | 0.00 | 0.00 | 0.00 | 47 | 1013.3 |
| 20260502103225 | 46 | 44 | 0.0 | 0.0 | 0.00 | 0.00 | 0.00 | 46 | 1013.3 |
| 20260502102725 | 46 | 44 | 0.0 | 0.0 | 0.00 | 0.00 | 0.00 | 46 | 1013.2 |
| 20260502102225 | 46 | 44 | 0.0 | 0.0 | 0.00 | 0.00 | 0.00 | 46 | 1013.2 |
| 20260502101725 | 47 | 44 | 0.0 | 0.0 | 0.00 | 0.00 | 0.00 | 46 | 1013.2 |
| 20260502101225 | 47 | 44 | 0.0 | 0.0 | 0.00 | 0.00 | 0.00 | 45 | 1013.1 |
| 20260502100725 | 47 | 44 | 0.0 | 0.0 | 0.00 | 0.00 | 0.00 | 45 | 1013.0 |
| 20260502100225 | 47 | 44 | 0.0 | 0.0 | 0.00 | 0.00 | 0.00 | 45 | 1013.0 |
| 20260502091225 | 49 | 44 | 0.0 | 0.0 | 0.00 | 0.00 | 0.00 | 43 | 1012.9 |
| 20260502090725 | 48 | 44 | 0.0 | 0.0 | 0.00 | 0.00 | 0.00 | 42 | 1012.9 |
| 20260502090225 | 48 | 44 | 0.0 | 0.0 | 0.00 | 0.00 | 0.00 | 43 | 1013.0 |
| 20260502071225 | 48 | 44 | 0.0 | 0.0 | 0.00 | 0.00 | 0.00 | 42 | 1013.4 |
| 20260502070725 | 49 | 44 | 0.0 | 0.0 | 0.00 | 0.00 | 0.00 | 42 | 1013.4 |
| 20260502070225 | 49 | 44 | 0.0 | 0.0 | 0.00 | 0.00 | 0.00 | 42 | 1013.4 |
| 20260502065725 | 49 | 44 | 0.0 | 0.0 | 0.00 | 0.00 | 0.00 | 41 | 1013.4 |
| 20260502065225 | 49 | 44 | 0.0 | 0.0 | 0.00 | 0.00 | 0.00 | 39 | 1013.4 |
| 20260502064725 | 49 | 44 | 0.0 | 0.0 | 0.00 | 0.00 | 0.00 | 41 | 1013.4 |
| 20260502064225 | 49 | 44 | 0.0 | 0.0 | 0.00 | 0.00 | 0.00 | 40 | 1013.3 |
| 20260502063725 | 48 | 44 | 0.0 | 0.0 | 0.00 | 0.00 | 0.00 | 43 | 1013.2 |
| 20260502063225 | 49 | 44 | 0.0 | 0.0 | 0.00 | 0.00 | 0.00 | 42 | 1013.3 |
| 20260502062725 | 49 | 44 | 0.0 | 0.0 | 0.00 | 0.00 | 0.00 | 41 | 1013.3 |
| 20260502062225 | 49 | 44 | 0.0 | 0.0 | 0.00 | 0.00 | 0.00 | 39 | 1013.2 |
| 20260502061725 | 49 | 44 | 0.0 | 0.0 | 0.00 | 0.00 | 0.00 | 39 | 1013.2 |
| 20260502061225 | 50 | 44 | 0.0 | 0.0 | 0.00 | 0.00 | 0.00 | 39 | 1013.2 |
| 20260502060725 | 50 | 44 | 0.0 | 0.0 | 0.00 | 0.00 | 0.00 | 40 | 1013.1 |
| 20260502060225 | 50 | 44 | 0.0 | 0.0 | 0.00 | 0.00 | 0.00 | 40 | 1013.1 |
| 20260502055725 | 50 | 44 | 0.0 | 0.0 | 0.00 | 0.00 | 0.00 | 39 | 1013.1 |
| 20260502055225 | 50 | 44 | 0.0 | 0.0 | 0.00 | 0.00 | 0.00 | 39 | 1013.1 |
| 20260502054725 | 50 | 44 | 0.0 | 0.0 | 0.00 | 0.00 | 0.00 | 41 | 1013.0 |
| 20260502054225 | 50 | 44 | 0.0 | 0.0 | 0.00 | 0.00 | 0.00 | 39 | 1013.0 |
| 20260502053725 | 50 | 44 | 0.0 | 0.0 | 0.00 | 0.00 | 0.00 | 38 | 1013.1 |
| 20260502053225 | 51 | 44 | 0.0 | 0.0 | 0.00 | 0.00 | 0.00 | 38 | 1013.0 |
| 20260502052725 | 51 | 44 | 0.0 | 0.0 | 0.00 | 0.00 | 0.00 | 38 | 1013.0 |
| 20260502052225 | 51 | 44 | 0.0 | 0.0 | 0.00 | 0.00 | 0.00 | 37 | 1013.0 |
| 20260502051725 | 52 | 44 | 0.0 | 0.0 | 0.00 | 0.00 | 0.00 | 37 | 1013.0 |
| 20260502051225 | 52 | 44 | 0.0 | 0.0 | 0.00 | 0.00 | 0.00 | 37 | 1013.0 |
| 20260502050725 | 52 | 44 | 0.0 | 0.0 | 0.00 | 0.00 | 0.00 | 36 | 1013.1 |
| 20260502050225 | 52 | 44 | 0.0 | 0.0 | 0.00 | 0.00 | 0.00 | 36 | 1013.0 |
| 20260502045725 | 52 | 44 | 0.0 | 0.0 | 0.00 | 0.00 | 0.00 | 36 | 1013.1 |
| 20260502045225 | 52 | 44 | 0.0 | 0.0 | 0.00 | 0.00 | 0.00 | 36 | 1013.0 |
| 20260502044725 | 52 | 44 | 0.0 | 0.0 | 0.00 | 0.00 | 0.00 | 37 | 1013.1 |
| 20260502044225 | 52 | 44 | 0.0 | 0.0 | 0.00 | 0.00 | 0.00 | 37 | 1013.1 |
| 20260502043725 | 52 | 44 | 0.0 | 0.0 | 0.00 | 0.00 | 0.00 | 37 | 1013.0 |
| 20260502043225 | 52 | 44 | 0.0 | 0.0 | 0.00 | 0.00 | 0.00 | 37 | 1013.1 |
| 20260502042725 | 52 | 44 | 0.0 | 0.0 | 0.00 | 0.00 | 0.00 | 37 | 1013.0 |
| 20260502042225 | 52 | 44 | 0.0 | 0.0 | 0.00 | 0.00 | 0.00 | 37 | 1013.0 |
| 20260502041725 | 53 | 44 | 0.0 | 0.0 | 0.00 | 0.00 | 0.00 | 37 | 1013.0 |
| 20260502041225 | 53 | 44 | 0.0 | 0.0 | 0.00 | 0.00 | 0.00 | 37 | 1013.0 |
| 20260502040725 | 53 | 44 | 0.0 | 0.0 | 0.00 | 0.00 | 0.00 | 36 | 1012.8 |
| 20260502040225 | 53 | 44 | 0.0 | 0.0 | 0.00 | 0.00 | 0.00 | 36 | 1012.8 |
| 20260502035725 | 53 | 44 | 0.0 | 0.0 | 0.00 | 0.00 | 0.00 | 35 | 1012.7 |
| 20260502035225 | 53 | 44 | 0.0 | 0.0 | 0.00 | 0.00 | 0.00 | 35 | 1012.7 |
| 20260502034725 | 54 | 44 | 0.0 | 0.0 | 0.00 | 0.00 | 0.00 | 35 | 1012.6 |
| 20260502034225 | 54 | 44 | 0.0 | 1.0 | 0.00 | 0.00 | 0.00 | 35 | 1012.6 |
| 20260502033725 | 54 | 44 | 0.0 | 3.0 | 0.00 | 0.00 | 0.00 | 35 | 1012.5 |
| 20260502033225 | 54 | 44 | 0.0 | 0.0 | 0.00 | 0.00 | 0.00 | 34 | 1012.5 |
| 20260502032725 | 54 | 44 | 0.0 | 0.0 | 0.00 | 0.00 | 0.00 | 35 | 1012.4 |
| 20260502032225 | 54 | 44 | 0.0 | 0.0 | 0.00 | 0.00 | 0.00 | 35 | 1012.3 |
| 20260502031725 | 54 | 44 | 0.0 | 0.0 | 0.00 | 0.00 | 0.00 | 34 | 1012.3 |
| 20260502031225 | 54 | 44 | 0.0 | 2.0 | 0.00 | 0.00 | 0.00 | 34 | 1012.2 |
| 20260502030725 | 54 | 44 | 0.0 | 1.0 | 0.00 | 0.00 | 0.00 | 35 | 1012.1 |
| 20260502030225 | 54 | 44 | 0.0 | 0.0 | 0.00 | 0.00 | 0.00 | 35 | 1012.0 |
| 20260502025725 | 55 | 44 | 0.0 | 0.0 | 0.00 | 0.00 | 0.00 | 35 | 1011.9 |
| 20260502025225 | 55 | 44 | 0.0 | 0.0 | 0.00 | 0.00 | 0.00 | 34 | 1011.9 |
| 20260502024725 | 55 | 44 | 0.0 | 0.0 | 0.00 | 0.00 | 0.00 | 34 | 1011.8 |
| 20260502024225 | 56 | 44 | 0.0 | 0.0 | 0.00 | 0.00 | 0.00 | 34 | 1011.8 |
| 20260502023725 | 56 | 44 | 0.0 | 0.0 | 0.00 | 0.00 | 0.00 | 34 | 1011.7 |
| 20260502023225 | 56 | 44 | 0.0 | 2.0 | 0.00 | 0.00 | 0.00 | 33 | 1011.8 |
| 20260502022725 | 56 | 44 | 0.0 | 4.0 | 0.00 | 0.00 | 0.00 | 32 | 1011.8 |
| 20260502022225 | 57 | 44 | 0.0 | 0.0 | 0.00 | 0.00 | 0.00 | 31 | 1011.8 |
| 20260502021725 | 57 | 44 | 0.0 | 0.0 | 0.00 | 0.00 | 0.00 | 31 | 1011.7 |
| 20260502021225 | 57 | 44 | 0.0 | 1.0 | 0.00 | 0.00 | 0.00 | 31 | 1011.7 |
| 20260502020725 | 58 | 44 | 1.0 | 3.0 | 0.00 | 0.00 | 0.00 | 30 | 1011.7 |
| 20260502020225 | 58 | 44 | 1.0 | 6.0 | 0.00 | 0.00 | 0.00 | 30 | 1011.6 |
| 20260502015725 | 58 | 45 | 1.0 | 4.0 | 0.00 | 0.00 | 0.00 | 30 | 1011.7 |
| 20260502015225 | 59 | 45 | 1.0 | 4.0 | 0.00 | 0.00 | 0.00 | 29 | 1011.6 |
| 20260502014725 | 59 | 45 | 1.0 | 4.0 | 0.00 | 0.00 | 0.00 | 30 | 1011.6 |
| 20260502014225 | 59 | 45 | 1.0 | 6.0 | 0.00 | 0.00 | 0.00 | 29 | 1011.5 |
| 20260502013725 | 60 | 46 | 1.0 | 3.0 | 0.00 | 0.00 | 0.00 | 29 | 1011.5 |
| 20260502013225 | 60 | 46 | 2.0 | 4.0 | 0.00 | 0.00 | 0.00 | 28 | 1011.5 |
| 20260502012725 | 61 | 47 | 2.0 | 5.0 | 0.00 | 0.00 | 0.00 | 28 | 1011.5 |
| 20260502012226 | 61 | 48 | 1.0 | 4.0 | 0.00 | 0.00 | 0.00 | 28 | 1011.5 |
| 20260502011725 | 61 | 48 | 1.0 | 4.0 | 0.00 | 0.00 | 0.00 | 28 | 1011.5 |
| 20260502011225 | 61 | 48 | 2.0 | 5.0 | 0.00 | 0.00 | 0.00 | 27 | 1011.4 |
| 20260502010725 | 62 | 43 | 2.0 | 4.0 | 0.00 | 0.00 | 0.00 | 27 | 1011.5 |
| 20260502010225 | 62 | 43 | 2.0 | 4.0 | 0.00 | 0.00 | 0.00 | 26 | 1011.6 |
| 20260502005725 | 62 | 42 | 2.0 | 5.0 | 0.00 | 0.00 | 0.00 | 27 | 1011.6 |
| 20260502005225 | 62 | 37 | 3.0 | 6.0 | 0.00 | 0.00 | 0.00 | 26 | 1011.6 |
| 20260502004725 | 62 | 53 | 2.0 | 6.0 | 0.00 | 0.00 | 0.00 | 26 | 1011.5 |
| 20260502004225 | 62 | 38 | 2.0 | 5.0 | 0.00 | 0.00 | 0.00 | 26 | 1011.5 |
| 20260502003725 | 62 | 34 | 2.0 | 6.0 | 0.00 | 0.00 | 0.00 | 25 | 1011.6 |
| 20260502003226 | 62 | 29 | 2.0 | 4.0 | 0.00 | 0.00 | 0.00 | 25 | 1011.6 |
| 20260502002726 | 62 | 44 | 3.0 | 5.0 | 0.00 | 0.00 | 0.00 | 25 | 1011.6 |
| 20260502002225 | 63 | 24 | 3.0 | 6.0 | 0.00 | 0.00 | 0.00 | 26 | 1011.6 |
| 20260502001725 | 63 | 39 | 2.0 | 7.0 | 0.00 | 0.00 | 0.00 | 25 | 1011.6 |
| 20260502001226 | 63 | 61 | 2.0 | 5.0 | 0.00 | 0.00 | 0.00 | 26 | 1011.6 |
| 20260502000725 | 63 | 44 | 1.0 | 5.0 | 0.00 | 0.00 | 0.00 | 26 | 1011.6 |
| 20260502000226 | 63 | 44 | 2.0 | 6.0 | 0.00 | 0.00 | 0.00 | 25 | 1011.7 |
| 20260501235726 | 63 | 76 | 2.0 | 8.0 | 0.00 | 0.00 | 0.00 | 25 | 1011.7 |
| 20260501235226 | 63 | 69 | 2.0 | 5.0 | 0.00 | 0.00 | 0.00 | 25 | 1011.6 |
| 20260501234726 | 63 | 46 | 2.0 | 5.0 | 0.00 | 0.00 | 0.00 | 25 | 1011.6 |
| 20260501234226 | 64 | 46 | 2.0 | 7.0 | 0.00 | 0.00 | 0.00 | 24 | 1011.7 |
| 20260501233726 | 64 | 84 | 2.0 | 6.0 | 0.00 | 0.00 | 0.00 | 24 | 1011.6 |
| 20260501233226 | 64 | 71 | 2.0 | 7.0 | 0.00 | 0.00 | 0.00 | 23 | 1011.6 |
| 20260501232726 | 64 | 69 | 2.0 | 4.0 | 0.00 | 0.00 | 0.00 | 23 | 1011.7 |
| 20260501232226 | 65 | 53 | 2.0 | 8.0 | 0.00 | 0.00 | 0.00 | 23 | 1011.7 |
| 20260501231726 | 65 | 112 | 2.0 | 6.0 | 0.00 | 0.00 | 0.00 | 24 | 1011.5 |
| 20260501231226 | 65 | 104 | 1.0 | 6.0 | 0.00 | 0.00 | 0.00 | 23 | 1011.6 |
| 20260501230726 | 65 | 77 | 1.0 | 6.0 | 0.00 | 0.00 | 0.00 | 23 | 1011.5 |
| 20260501230226 | 65 | 61 | 1.0 | 5.0 | 0.00 | 0.00 | 0.00 | 23 | 1011.5 |
| 20260501225726 | 65 | 115 | 1.0 | 4.0 | 0.00 | 0.00 | 0.00 | 23 | 1011.5 |
| 20260501225226 | 65 | 155 | 2.0 | 3.0 | 0.00 | 0.00 | 0.00 | 23 | 1011.6 |
| 20260501224726 | 65 | 172 | 2.0 | 5.0 | 0.00 | 0.00 | 0.00 | 22 | 1011.7 |
| 20260501224226 | 65 | 42 | 2.0 | 4.0 | 0.00 | 0.00 | 0.00 | 24 | 1011.7 |
| 20260501223726 | 65 | 42 | 2.0 | 6.0 | 0.00 | 0.00 | 0.00 | 23 | 1011.7 |
| 20260501223226 | 65 | 5 | 2.0 | 8.0 | 0.00 | 0.00 | 0.00 | 25 | 1011.7 |
| 20260501222726 | 65 | 67 | 1.0 | 7.0 | 0.00 | 0.00 | 0.00 | 23 | 1011.8 |
| 20260501222226 | 65 | 60 | 1.0 | 7.0 | 0.00 | 0.00 | 0.00 | 23 | 1011.8 |
| 20260501221726 | 65 | 61 | 1.0 | 10.0 | 0.00 | 0.00 | 0.00 | 24 | 1011.9 |
| 20260501221226 | 65 | 271 | 1.0 | 5.0 | 0.00 | 0.00 | 0.00 | 23 | 1011.9 |
| 20260501220726 | 65 | 271 | 1.0 | 3.0 | 0.00 | 0.00 | 0.00 | 23 | 1012.0 |
| 20260501220226 | 65 | 271 | 1.0 | 4.0 | 0.00 | 0.00 | 0.00 | 25 | 1012.0 |
| 20260501215726 | 65 | 271 | 1.0 | 5.0 | 0.00 | 0.00 | 0.00 | 26 | 1012.0 |
| 20260501215226 | 65 | 271 | 1.0 | 5.0 | 0.00 | 0.00 | 0.00 | 25 | 1012.1 |
| 20260501214726 | 65 | 271 | 1.0 | 7.0 | 0.00 | 0.00 | 0.00 | 25 | 1012.2 |
| 20260501214226 | 65 | 271 | 1.0 | 3.0 | 0.00 | 0.00 | 0.00 | 27 | 1012.2 |
| 20260501213726 | 65 | 271 | 1.0 | 5.0 | 0.00 | 0.00 | 0.00 | 27 | 1012.2 |
| 20260501213226 | 65 | 271 | 1.0 | 4.0 | 0.00 | 0.00 | 0.00 | 26 | 1012.2 |
| 20260501212726 | 65 | 271 | 2.0 | 7.0 | 0.00 | 0.00 | 0.00 | 25 | 1012.4 |
| 20260501212226 | 64 | 270 | 1.0 | 7.0 | 0.00 | 0.00 | 0.00 | 27 | 1012.4 |
| 20260501211726 | 64 | 266 | 1.0 | 4.0 | 0.00 | 0.00 | 0.00 | 25 | 1012.4 |
| 20260501211226 | 64 | 266 | 0.0 | 2.0 | 0.00 | 0.00 | 0.00 | 25 | 1012.4 |
| 20260501210726 | 64 | 266 | 1.0 | 4.0 | 0.00 | 0.00 | 0.00 | 25 | 1012.5 |
| 20260501210226 | 64 | 266 | 1.0 | 6.0 | 0.00 | 0.00 | 0.00 | 25 | 1012.6 |
| 20260501205726 | 64 | 266 | 0.0 | 1.0 | 0.00 | 0.00 | 0.00 | 25 | 1012.6 |
| 20260501205226 | 63 | 266 | 1.0 | 3.0 | 0.00 | 0.00 | 0.00 | 26 | 1012.5 |
| 20260501204726 | 63 | 266 | 1.0 | 3.0 | 0.00 | 0.00 | 0.00 | 26 | 1012.7 |
| 20260501204226 | 63 | 266 | 2.0 | 5.0 | 0.00 | 0.00 | 0.00 | 24 | 1012.7 |
| 20260501203726 | 63 | 265 | 2.0 | 6.0 | 0.00 | 0.00 | 0.00 | 25 | 1012.6 |
| 20260501203226 | 63 | 264 | 2.0 | 5.0 | 0.00 | 0.00 | 0.00 | 25 | 1012.7 |
| 20260501202726 | 63 | 264 | 2.0 | 5.0 | 0.00 | 0.00 | 0.00 | 25 | 1012.7 |
| 20260501202226 | 63 | 261 | 1.0 | 5.0 | 0.00 | 0.00 | 0.00 | 26 | 1012.7 |
| 20260501201726 | 63 | 261 | 1.0 | 5.0 | 0.00 | 0.00 | 0.00 | 27 | 1012.7 |
| 20260501201226 | 63 | 258 | 1.0 | 5.0 | 0.00 | 0.00 | 0.00 | 26 | 1012.7 |
| 20260501200726 | 62 | 336 | 2.0 | 5.0 | 0.00 | 0.00 | 0.00 | 27 | 1012.7 |
| 20260501200226 | 62 | 336 | 2.0 | 7.0 | 0.00 | 0.00 | 0.00 | 29 | 1012.8 |
| 20260501195726 | 62 | 338 | 2.0 | 6.0 | 0.00 | 0.00 | 0.00 | 26 | 1012.8 |
| 20260501195226 | 62 | 343 | 2.0 | 6.0 | 0.00 | 0.00 | 0.00 | 24 | 1013.0 |
| 20260501194726 | 62 | 61 | 2.0 | 8.0 | 0.00 | 0.00 | 0.00 | 24 | 1013.1 |
| 20260501194226 | 62 | 82 | 1.0 | 3.0 | 0.00 | 0.00 | 0.00 | 26 | 1013.0 |
| 20260501193726 | 62 | 82 | 1.0 | 6.0 | 0.00 | 0.00 | 0.00 | 25 | 1013.1 |
| 20260501193226 | 62 | 82 | 1.0 | 3.0 | 0.00 | 0.00 | 0.00 | 25 | 1013.1 |
| 20260501192726 | 61 | 77 | 1.0 | 4.0 | 0.00 | 0.00 | 0.00 | 26 | 1013.3 |
| 20260501192226 | 61 | 56 | 2.0 | 7.0 | 0.00 | 0.00 | 0.00 | 26 | 1013.3 |
| 20260501191726 | 62 | 65 | 2.0 | 7.0 | 0.00 | 0.00 | 0.00 | 25 | 1013.3 |
| 20260501191226 | 61 | 48 | 1.0 | 4.0 | 0.00 | 0.00 | 0.00 | 27 | 1013.3 |
| 20260501190726 | 61 | 50 | 1.0 | 4.0 | 0.00 | 0.00 | 0.00 | 24 | 1013.3 |
| 20260501190344 | 61 | 50 | 1.0 | 4.0 | 0.00 | 0.00 | 0.00 | 27 | 1013.4 |
| 20260501185726 | 61 | 50 | 1.0 | 5.0 | 0.00 | 0.00 | 0.00 | 26 | 1013.6 |
| 20260501185226 | 61 | 49 | 1.0 | 2.0 | 0.00 | 0.00 | 0.00 | 25 | 1013.6 |
| 20260501184726 | 61 | 49 | 1.0 | 6.0 | 0.00 | 0.00 | 0.00 | 27 | 1013.7 |
| 20260501184226 | 60 | 41 | 2.0 | 6.0 | 0.00 | 0.00 | 0.00 | 26 | 1013.7 |
| 20260501183726 | 60 | 81 | 2.0 | 6.0 | 0.00 | 0.00 | 0.00 | 25 | 1013.8 |
| 20260501183226 | 60 | 32 | 2.0 | 4.0 | 0.00 | 0.00 | 0.00 | 30 | 1013.9 |
| 20260501182726 | 60 | 34 | 2.0 | 7.0 | 0.00 | 0.00 | 0.00 | 27 | 1014.0 |
| 20260501182226 | 59 | 30 | 1.0 | 5.0 | 0.00 | 0.00 | 0.00 | 30 | 1014.0 |
| 20260501181726 | 59 | 28 | 1.0 | 3.0 | 0.00 | 0.00 | 0.00 | 32 | 1014.0 |
| 20260501181226 | 58 | 29 | 2.0 | 5.0 | 0.00 | 0.00 | 0.00 | 29 | 1014.0 |
| 20260501180726 | 58 | 24 | 3.0 | 7.0 | 0.00 | 0.00 | 0.00 | 30 | 1014.0 |
| 20260501180226 | 58 | 40 | 2.0 | 6.0 | 0.00 | 0.00 | 0.00 | 28 | 1014.1 |
| 20260501175726 | 58 | 39 | 2.0 | 5.0 | 0.00 | 0.00 | 0.00 | 29 | 1014.1 |
| 20260501175226 | 58 | 40 | 2.0 | 6.0 | 0.00 | 0.00 | 0.00 | 29 | 1014.1 |
| 20260501174728 | 58 | 46 | 2.0 | 4.0 | 0.00 | 0.00 | 0.00 | 29 | 1014.1 |
| 20260501174226 | 58 | 46 | 2.0 | 6.0 | 0.00 | 0.00 | 0.00 | 31 | 1014.1 |
| 20260501173726 | 57 | 50 | 2.0 | 5.0 | 0.00 | 0.00 | 0.00 | 30 | 1014.1 |
| 20260501173226 | 57 | 47 | 1.0 | 5.0 | 0.00 | 0.00 | 0.00 | 31 | 1014.1 |
| 20260501172726 | 57 | 45 | 1.0 | 3.0 | 0.00 | 0.00 | 0.00 | 34 | 1014.2 |
| 20260501172226 | 57 | 45 | 2.0 | 4.0 | 0.00 | 0.00 | 0.00 | 33 | 1014.2 |
| 20260501171726 | 57 | 45 | 1.0 | 6.0 | 0.00 | 0.00 | 0.00 | 33 | 1014.3 |
| 20260501171226 | 57 | 46 | 0.0 | 5.0 | 0.00 | 0.00 | 0.00 | 35 | 1014.2 |
| 20260501170726 | 56 | 40 | 0.0 | 2.0 | 0.00 | 0.00 | 0.00 | 34 | 1014.3 |
| 20260501170234 | 56 | 40 | 1.0 | 2.0 | 0.00 | 0.00 | 0.00 | 32 | 1014.3 |
| 20260501165726 | 56 | 40 | 1.0 | 4.0 | 0.00 | 0.00 | 0.00 | 32 | 1014.3 |
| 20260501165226 | 56 | 40 | 0.0 | 3.0 | 0.00 | 0.00 | 0.00 | 34 | 1014.2 |
| 20260501164726 | 56 | 40 | 0.0 | 3.0 | 0.00 | 0.00 | 0.00 | 34 | 1014.2 |
| 20260501164226 | 56 | 40 | 0.0 | 0.0 | 0.00 | 0.00 | 0.00 | 35 | 1014.2 |
| 20260501163726 | 55 | 40 | 1.0 | 5.0 | 0.00 | 0.00 | 0.00 | 34 | 1014.2 |